createdAt,value
2022-09-10T00:01:36.133Z,1.20
2022-09-10T00:04:09.131Z,1.10
2022-09-10T00:06:38.649Z,1.20
2022-09-10T00:09:08.354Z,1.10
2022-09-10T00:11:38.553Z,1.00
2022-09-10T00:14:11.255Z,1.17
2022-09-10T00:16:39.256Z,1.00
2022-09-10T00:19:07.511Z,1.27
2022-09-10T00:21:35.599Z,1.30
2022-09-10T00:24:05.457Z,1.20
2022-09-10T00:26:38.260Z,1.10
2022-09-10T00:29:09.857Z,1.30
2022-09-10T00:31:39.013Z,1.50
2022-09-10T00:34:08.973Z,0.90
2022-09-10T00:36:40.744Z,1.63
2022-09-10T00:39:12.875Z,1.20
2022-09-10T00:41:43.632Z,1.20
2022-09-10T00:45:03.226Z,1.27
2022-09-10T00:47:36.185Z,1.70
2022-09-10T00:50:14.592Z,1.10
2022-09-10T00:52:42.727Z,1.20
2022-09-10T00:55:12.396Z,1.53
2022-09-10T00:57:41.149Z,1.27
2022-09-10T01:00:14.599Z,1.77
2022-09-10T01:02:42.814Z,1.33
2022-09-10T01:05:13.409Z,1.67
2022-09-10T01:07:42.780Z,1.53
2022-09-10T01:10:15.573Z,1.40
2022-09-10T01:13:14.850Z,2.20
2022-09-10T01:15:54.358Z,1.87
2022-09-10T01:18:34.137Z,1.67
2022-09-10T01:21:24.255Z,2.00
2022-09-10T01:24:25.125Z,1.70
2022-09-10T01:27:28.821Z,2.60
2022-09-10T01:30:04.469Z,1.70
2022-09-10T01:32:41.515Z,2.73
2022-09-10T01:35:16.972Z,1.97
2022-09-10T01:37:54.429Z,1.83
2022-09-10T01:40:29.502Z,2.70
2022-09-10T01:43:03.100Z,2.13
2022-09-10T01:45:35.185Z,3.80
2022-09-10T01:48:50.564Z,4.00
2022-09-10T01:51:29.805Z,3.30
2022-09-10T01:54:17.992Z,3.80
2022-09-10T01:56:55.202Z,2.60
2022-09-10T01:59:37.818Z,3.90
2022-09-10T02:02:14.287Z,3.57
2022-09-10T02:04:43.429Z,3.40
2022-09-10T02:07:13.582Z,4.00
2022-09-10T02:09:41.982Z,3.80
2022-09-10T02:12:19.038Z,4.17
2022-09-10T02:14:50.203Z,3.80
2022-09-10T02:17:19.424Z,3.87
2022-09-10T02:19:51.487Z,4.20
2022-09-10T02:22:20.611Z,4.10
2022-09-10T02:24:48.560Z,3.83
2022-09-10T02:27:16.714Z,3.80
2022-09-10T02:29:44.805Z,3.80
2022-09-10T02:32:14.246Z,3.57
2022-09-10T02:34:42.455Z,3.80
2022-09-10T02:37:11.035Z,3.60
2022-09-10T02:39:40.136Z,5.00
2022-09-10T02:42:08.523Z,3.70
2022-09-10T02:44:37.441Z,3.60
2022-09-10T02:47:06.052Z,3.90
2022-09-10T02:49:35.620Z,4.10
2022-09-10T02:52:04.704Z,2.90
2022-09-10T02:54:32.613Z,2.97
2022-09-10T02:57:01.022Z,3.50
2022-09-10T02:59:29.282Z,4.20
2022-09-10T03:01:57.358Z,4.20
2022-09-10T03:04:25.389Z,3.67
2022-09-10T03:06:55.330Z,3.53
2022-09-10T03:09:23.809Z,3.60
2022-09-10T03:11:51.877Z,3.43
2022-09-10T03:14:22.153Z,3.40
2022-09-10T03:16:50.385Z,3.40
2022-09-10T03:19:18.318Z,2.90
2022-09-10T03:21:47.435Z,2.10
2022-09-10T03:24:16.955Z,2.93
2022-09-10T03:26:44.887Z,3.10
2022-09-10T03:29:13.234Z,2.60
2022-09-10T03:31:42.538Z,3.80
2022-09-10T03:34:12.486Z,3.03
2022-09-10T03:36:40.471Z,3.70
2022-09-10T03:39:08.752Z,3.17
2022-09-10T03:41:38.050Z,4.10
2022-09-10T03:44:06.308Z,3.17
2022-09-10T03:46:34.544Z,3.57
2022-09-10T03:49:02.596Z,2.90
2022-09-10T03:51:31.087Z,3.80
2022-09-10T03:53:59.926Z,3.70
2022-09-10T03:56:28.258Z,4.17
2022-09-10T03:58:57.862Z,3.03
2022-09-10T04:01:25.949Z,2.90
2022-09-10T04:03:56.739Z,3.30
2022-09-10T04:06:24.729Z,3.50
2022-09-10T04:08:53.424Z,3.57
2022-09-10T04:11:23.880Z,3.93
2022-09-10T04:13:52.816Z,3.70
2022-09-10T04:16:23.334Z,3.83
2022-09-10T04:18:51.604Z,3.90
2022-09-10T04:21:23.083Z,4.70
2022-09-10T04:23:55.529Z,4.60
2022-09-10T04:26:24.163Z,4.70
2022-09-10T04:28:52.499Z,3.43
2022-09-10T04:31:21.906Z,4.07
2022-09-10T04:33:49.934Z,4.30
2022-09-10T04:36:17.886Z,3.87
2022-09-10T04:38:45.812Z,3.90
2022-09-10T04:41:15.411Z,4.20
2022-09-10T04:43:43.562Z,4.20
2022-09-10T04:46:11.681Z,4.00
2022-09-10T04:48:41.049Z,4.00
2022-09-10T04:51:17.482Z,3.67
2022-09-10T04:53:46.318Z,3.83
2022-09-10T04:56:14.863Z,4.10
2022-09-10T04:58:44.072Z,3.53
2022-09-10T05:01:12.400Z,4.47
2022-09-10T05:03:41.753Z,4.83
2022-09-10T05:06:10.201Z,3.10
2022-09-10T05:08:38.382Z,4.37
2022-09-10T05:11:06.875Z,3.90
2022-09-10T05:13:34.948Z,4.67
2022-09-10T05:16:03.459Z,4.20
2022-09-10T05:18:31.472Z,4.10
2022-09-10T05:21:00.826Z,4.37
2022-09-10T05:23:28.741Z,5.03
2022-09-10T05:25:57.117Z,4.90
2022-09-10T05:28:25.618Z,3.93
2022-09-10T05:30:53.551Z,4.77
2022-09-10T05:33:22.022Z,4.70
2022-09-10T05:35:51.980Z,4.63
2022-09-10T05:38:21.397Z,4.50
2022-09-10T05:40:49.649Z,5.20
2022-09-10T05:43:17.588Z,4.60
2022-09-10T05:45:45.623Z,4.33
2022-09-10T05:48:14.033Z,5.37
2022-09-10T05:50:41.959Z,5.17
2022-09-10T05:53:10.233Z,4.80
2022-09-10T05:55:39.591Z,5.20
2022-09-10T05:58:07.555Z,4.97
2022-09-10T06:00:36.332Z,5.50
2022-09-10T06:03:05.440Z,5.03
2022-09-10T06:05:33.611Z,5.43
2022-09-10T06:08:06.520Z,4.70
2022-09-10T06:10:36.439Z,4.97
2022-09-10T06:13:07.050Z,3.73
2022-09-10T06:15:36.140Z,3.97
2022-09-10T06:18:04.144Z,4.47
2022-09-10T06:20:32.123Z,4.20
2022-09-10T06:23:00.099Z,3.30
2022-09-10T06:25:28.809Z,4.50
2022-09-10T06:27:56.800Z,4.03
2022-09-10T06:30:26.433Z,4.10
2022-09-10T06:32:54.604Z,4.37
2022-09-10T06:35:22.788Z,4.17
2022-09-10T06:37:50.734Z,3.93
2022-09-10T06:40:19.053Z,3.50
2022-09-10T06:42:47.000Z,3.70
2022-09-10T06:45:15.281Z,4.17
2022-09-10T06:50:33.167Z,3.30
2022-09-10T06:53:01.185Z,3.37
2022-09-10T06:55:29.185Z,3.50
2022-09-10T06:57:57.254Z,3.47
2022-09-10T07:00:25.228Z,3.33
2022-09-10T07:02:54.940Z,3.30
2022-09-10T07:05:22.949Z,3.40
2022-09-10T07:07:51.428Z,4.07
2022-09-10T07:10:19.718Z,3.23
2022-09-10T07:12:47.655Z,3.10
2022-09-10T07:15:15.794Z,2.97
2022-09-10T07:17:43.754Z,3.27
2022-09-10T07:20:14.845Z,3.17
2022-09-10T07:22:43.665Z,3.20
2022-09-10T07:25:12.739Z,3.70
2022-09-10T07:27:40.678Z,3.07
2022-09-10T07:30:10.179Z,3.23
2022-09-10T07:32:38.270Z,3.07
2022-09-10T07:35:08.971Z,2.97
2022-09-10T07:37:42.343Z,3.27
2022-09-10T07:40:12.069Z,2.73
2022-09-10T07:42:40.218Z,2.60
2022-09-10T07:45:13.800Z,2.77
2022-09-10T07:47:42.016Z,2.20
2022-09-10T07:50:11.496Z,2.57
2022-09-10T07:52:41.769Z,2.20
2022-09-10T07:55:10.959Z,2.50
2022-09-10T07:57:39.723Z,2.47
2022-09-10T08:00:14.647Z,2.30
2022-09-10T08:02:46.847Z,2.97
2022-09-10T08:05:15.129Z,2.20
2022-09-10T08:07:44.767Z,2.43
2022-09-10T08:10:13.526Z,2.20
2022-09-10T08:12:42.344Z,2.47
2022-09-10T08:15:12.110Z,2.20
2022-09-10T08:17:40.357Z,2.00
2022-09-10T08:20:10.923Z,2.10
2022-09-10T08:22:38.944Z,1.93
2022-09-10T08:25:09.609Z,1.83
2022-09-10T08:27:37.645Z,1.90
2022-09-10T08:30:07.367Z,1.60
2022-09-10T08:32:36.638Z,2.10
2022-09-10T08:35:07.036Z,1.67
2022-09-10T08:37:35.231Z,1.83
2022-09-10T08:40:05.615Z,1.57
2022-09-10T08:42:43.021Z,1.80
2022-09-10T08:45:16.457Z,1.57
2022-09-10T08:47:54.341Z,1.40
2022-09-10T08:50:37.152Z,1.70
2022-09-10T08:53:18.099Z,1.43
2022-09-10T08:55:49.004Z,1.57
2022-09-10T08:58:23.175Z,1.70
2022-09-10T09:00:57.577Z,1.70
2022-09-10T09:03:32.657Z,2.03
2022-09-10T09:06:03.378Z,1.63
2022-09-10T09:08:36.279Z,1.50
2022-09-10T09:11:13.644Z,2.20
2022-09-10T09:13:57.309Z,2.00
2022-09-10T09:16:41.737Z,2.40
2022-09-10T09:19:21.063Z,2.33
2022-09-10T09:21:53.772Z,1.80
2022-09-10T09:24:25.841Z,2.40
2022-09-10T09:27:01.067Z,1.70
2022-09-10T09:29:39.248Z,1.97
2022-09-10T09:32:07.654Z,3.27
2022-09-10T09:34:45.800Z,2.00
2022-09-10T09:37:25.119Z,1.97
2022-09-10T09:40:13.194Z,1.93
2022-09-10T09:42:48.317Z,1.97
2022-09-10T09:45:25.794Z,2.03
2022-09-10T09:47:55.816Z,2.10
2022-09-10T09:50:23.947Z,2.33
2022-09-10T09:52:56.852Z,2.13
2022-09-10T09:55:33.392Z,2.70
2022-09-10T09:58:32.074Z,1.90
2022-09-10T10:01:18.573Z,1.53
2022-09-10T10:03:52.089Z,1.63
2022-09-10T10:06:23.994Z,1.37
2022-09-10T10:09:20.207Z,1.63
2022-09-10T10:11:55.063Z,1.57
2022-09-10T10:14:38.079Z,1.17
2022-09-10T10:17:29.625Z,1.33
2022-09-10T10:20:06.053Z,1.50
2022-09-10T10:22:35.099Z,1.37
2022-09-10T10:25:05.791Z,1.77
2022-09-10T10:27:37.110Z,1.30
2022-09-10T10:30:22.685Z,1.17
2022-09-10T10:32:57.003Z,1.00
2022-09-10T10:35:37.336Z,1.23
2022-09-10T10:38:30.793Z,1.00
2022-09-10T10:41:27.075Z,1.10
2022-09-10T10:44:14.108Z,0.77
2022-09-10T10:46:54.803Z,0.70
2022-09-10T10:49:38.011Z,0.73
2022-09-10T10:52:13.889Z,0.80
2022-09-10T10:55:01.923Z,1.00
2022-09-10T10:57:47.652Z,1.00
2022-09-10T11:00:18.870Z,0.70
2022-09-10T11:02:54.364Z,0.80
2022-09-10T11:05:31.722Z,0.70
2022-09-10T11:08:02.841Z,0.80
2022-09-10T11:10:35.410Z,0.70
2022-09-10T11:13:10.306Z,0.70
2022-09-10T11:15:49.566Z,0.87
2022-09-10T11:18:27.177Z,0.77
2022-09-10T11:21:03.049Z,0.80
2022-09-10T11:23:35.668Z,0.63
2022-09-10T11:26:08.856Z,0.70
2022-09-10T11:28:41.954Z,0.93
2022-09-10T11:31:13.992Z,0.60
2022-09-10T11:33:50.463Z,0.60
2022-09-10T11:36:29.071Z,0.97
2022-09-10T11:39:11.520Z,0.87
2022-09-10T11:41:43.407Z,0.60
2022-09-10T11:44:36.451Z,0.67
2022-09-10T11:47:14.304Z,2.10
2022-09-10T11:49:49.506Z,0.80
2022-09-10T11:52:21.004Z,0.90
2022-09-10T11:54:49.477Z,0.60
2022-09-10T11:57:38.106Z,0.70
2022-09-10T12:00:15.644Z,0.70
2022-09-10T12:03:25.562Z,0.60
2022-09-10T12:06:03.701Z,0.70
2022-09-10T12:08:53.270Z,0.50
2022-09-10T12:11:29.880Z,1.40
2022-09-10T12:13:58.772Z,0.60
2022-09-10T12:16:37.478Z,0.70
2022-09-10T12:19:16.736Z,0.87
2022-09-10T12:21:51.006Z,0.67
2022-09-10T12:24:30.866Z,0.90
2022-09-10T12:27:01.803Z,0.70
2022-09-10T12:29:35.018Z,0.70
2022-09-10T12:32:33.066Z,0.60
2022-09-10T12:35:47.333Z,0.60
2022-09-10T12:38:56.045Z,0.90
2022-09-10T12:41:59.811Z,0.50
2022-09-10T12:44:53.880Z,0.73
2022-09-10T12:47:50.092Z,0.70
2022-09-10T12:50:46.298Z,0.60
2022-09-10T12:53:57.377Z,0.70
2022-09-10T12:56:58.091Z,0.90
2022-09-10T13:00:05.535Z,0.70
2022-09-10T13:02:37.984Z,0.80
2022-09-10T13:05:20.748Z,1.03
2022-09-10T13:08:03.820Z,0.60
2022-09-10T13:10:32.944Z,0.70
2022-09-10T13:13:08.921Z,1.27
2022-09-10T13:15:39.693Z,0.80
2022-09-10T13:18:27.754Z,0.60
2022-09-10T13:20:56.071Z,1.50
2022-09-10T13:23:47.525Z,1.00
2022-09-10T13:26:50.501Z,0.83
2022-09-10T13:29:34.243Z,0.70
2022-09-10T13:32:09.136Z,0.70
2022-09-10T13:35:23.362Z,0.63
2022-09-10T13:38:13.648Z,0.70
2022-09-10T13:41:03.527Z,0.83
2022-09-10T13:43:52.847Z,1.30
2022-09-10T13:46:32.563Z,0.60
2022-09-10T13:49:08.763Z,0.90
2022-09-10T13:51:46.064Z,0.80
2022-09-10T13:54:33.017Z,0.90
2022-09-10T13:57:07.084Z,0.80
2022-09-10T13:59:37.105Z,0.70
2022-09-10T14:02:06.795Z,0.90
2022-09-10T14:04:44.257Z,0.80
2022-09-10T14:07:17.208Z,0.70
2022-09-10T14:09:47.540Z,0.80
2022-09-10T14:12:17.885Z,0.80
2022-09-10T14:14:50.988Z,1.10
2022-09-10T14:17:26.207Z,0.70
2022-09-10T14:19:59.119Z,0.90
2022-09-10T14:22:28.680Z,0.70
2022-09-10T14:24:59.743Z,0.97
2022-09-10T14:27:30.947Z,0.90
2022-09-10T14:30:24.315Z,0.80
2022-09-10T14:32:54.779Z,0.70
2022-09-10T14:35:40.446Z,0.90
2022-09-10T14:38:26.467Z,0.67
2022-09-10T14:41:08.793Z,0.77
2022-09-10T14:43:39.106Z,0.80
2022-09-10T14:46:08.980Z,0.70
2022-09-10T14:48:41.266Z,0.73
2022-09-10T14:51:20.470Z,0.70
2022-09-10T14:53:53.598Z,0.90
2022-09-10T14:56:26.619Z,1.07
2022-09-10T14:59:00.449Z,0.70
2022-09-10T15:01:30.326Z,0.70
2022-09-10T15:04:00.519Z,0.87
2022-09-10T15:06:28.726Z,1.10
2022-09-10T15:08:57.004Z,1.00
2022-09-10T15:11:28.788Z,0.90
2022-09-10T15:14:00.784Z,0.80
2022-09-10T15:16:29.619Z,1.20
2022-09-10T15:18:59.175Z,0.83
2022-09-10T15:21:27.472Z,0.90
2022-09-10T15:23:55.470Z,0.90
2022-09-10T15:26:23.512Z,1.03
2022-09-10T15:28:52.710Z,0.70
2022-09-10T15:31:20.822Z,1.00
2022-09-10T15:33:48.972Z,0.90
2022-09-10T15:36:18.381Z,1.23
2022-09-10T15:38:46.413Z,1.20
2022-09-10T15:41:16.874Z,2.70
2022-09-10T15:43:46.665Z,1.20
2022-09-10T15:46:18.780Z,1.10
2022-09-10T15:48:49.755Z,1.27
2022-09-10T15:51:22.900Z,0.97
2022-09-10T15:53:52.749Z,1.03
2022-09-10T15:56:24.043Z,0.90
2022-09-10T15:58:55.052Z,0.87
2022-09-10T16:01:24.979Z,1.03
2022-09-10T16:03:56.016Z,1.20
2022-09-10T16:06:28.307Z,1.00
2022-09-10T16:09:00.808Z,1.47
2022-09-10T16:11:31.213Z,1.27
2022-09-10T16:14:04.333Z,1.03
2022-09-10T16:16:34.884Z,1.00
2022-09-10T16:19:03.112Z,1.03
2022-09-10T16:21:37.191Z,1.17
2022-09-10T16:24:07.294Z,1.10
2022-09-10T16:26:37.506Z,0.90
2022-09-10T16:29:07.720Z,1.53
2022-09-10T16:31:39.124Z,1.00
2022-09-10T16:34:09.234Z,1.07
2022-09-10T16:36:40.110Z,1.13
2022-09-10T16:39:12.423Z,1.13
2022-09-10T16:41:41.446Z,1.00
2022-09-10T16:44:10.961Z,1.13
2022-09-10T16:46:39.909Z,0.80
2022-09-10T16:49:12.442Z,1.03
2022-09-10T16:51:43.118Z,1.40
2022-09-10T16:54:13.787Z,1.17
2022-09-10T16:56:44.030Z,0.80
2022-09-10T16:59:15.980Z,1.10
2022-09-10T17:01:46.647Z,1.20
2022-09-10T17:04:22.268Z,1.10
2022-09-10T17:06:52.991Z,1.47
2022-09-10T17:09:21.114Z,1.37
2022-09-10T17:11:49.146Z,1.13
2022-09-10T17:14:17.212Z,1.00
2022-09-10T17:16:47.394Z,1.07
2022-09-10T17:19:17.549Z,1.40
2022-09-10T17:21:50.951Z,2.00
2022-09-10T17:24:23.271Z,1.57
2022-09-10T17:26:52.735Z,1.13
2022-09-10T17:29:23.330Z,1.50
2022-09-10T17:31:52.484Z,0.90
2022-09-10T17:34:24.242Z,1.20
2022-09-10T17:36:52.446Z,1.37
2022-09-10T17:39:21.952Z,1.50
2022-09-10T17:41:50.115Z,1.40
2022-09-10T17:44:20.918Z,1.67
2022-09-10T17:46:48.939Z,1.57
2022-09-10T17:49:17.530Z,1.43
2022-09-10T17:51:46.116Z,1.90
2022-09-10T17:54:15.253Z,0.90
2022-09-10T17:56:44.785Z,1.30
2022-09-10T17:59:14.958Z,1.07
2022-09-10T18:01:43.533Z,1.20
2022-09-10T18:04:14.285Z,1.30
2022-09-10T18:06:43.646Z,1.77
2022-09-10T18:09:13.637Z,1.83
2022-09-10T18:11:43.834Z,1.30
2022-09-10T18:14:18.536Z,2.00
2022-09-10T18:16:47.088Z,1.30
2022-09-10T18:19:17.710Z,1.60
2022-09-10T18:21:47.947Z,1.50
2022-09-10T18:24:18.940Z,1.43
2022-09-10T18:26:50.224Z,1.30
2022-09-10T18:29:20.995Z,1.47
2022-09-10T18:31:52.631Z,1.40
2022-09-10T18:34:24.518Z,1.20
2022-09-10T18:36:54.724Z,1.00
2022-09-10T18:39:24.835Z,1.30
2022-09-10T18:41:55.566Z,1.40
2022-09-10T18:44:26.334Z,1.20
2022-09-10T18:46:55.914Z,1.23
2022-09-10T18:49:25.874Z,0.90
2022-09-10T18:51:56.100Z,1.27
2022-09-10T18:54:32.060Z,1.13
2022-09-10T18:57:04.925Z,1.07
2022-09-10T18:59:33.362Z,1.57
2022-09-10T19:02:06.433Z,1.20
2022-09-10T19:04:54.425Z,0.90
2022-09-10T19:07:24.392Z,1.77
2022-09-10T19:09:52.662Z,1.10
2022-09-10T19:12:22.281Z,1.23
2022-09-10T19:14:50.592Z,1.30
2022-09-10T19:17:20.330Z,1.20
2022-09-10T19:19:50.125Z,1.17
2022-09-10T19:22:18.295Z,1.30
2022-09-10T19:24:55.727Z,1.03
2022-09-10T19:27:25.965Z,1.40
2022-09-10T19:29:54.267Z,1.37
2022-09-10T19:32:22.475Z,1.63
2022-09-10T19:34:51.044Z,1.20
2022-09-10T19:37:20.072Z,1.30
2022-09-10T19:39:48.186Z,1.27
2022-09-10T19:42:16.355Z,1.47
2022-09-10T19:44:45.713Z,1.50
2022-09-10T19:47:13.685Z,1.50
2022-09-10T19:49:41.702Z,1.60
2022-09-10T19:52:11.021Z,2.43
2022-09-10T19:54:39.060Z,1.37
2022-09-10T19:57:07.115Z,1.37
2022-09-10T19:59:35.563Z,1.90
2022-09-10T20:02:05.227Z,1.70
2022-09-10T20:04:33.875Z,2.00
2022-09-10T20:07:01.922Z,1.97
2022-09-10T20:09:29.840Z,1.23
2022-09-10T20:11:57.840Z,1.50
2022-09-10T20:14:26.052Z,1.80
2022-09-10T20:16:54.668Z,1.20
2022-09-10T20:19:24.239Z,1.50
2022-09-10T20:21:52.184Z,1.60
2022-09-10T20:24:20.195Z,1.40
2022-09-10T20:26:48.947Z,1.27
2022-09-10T20:29:19.325Z,2.23
2022-09-10T20:31:48.705Z,1.97
2022-09-10T20:34:19.387Z,1.70
2022-09-10T20:36:51.113Z,1.43
2022-09-10T20:39:22.242Z,2.00
2022-09-10T20:41:50.183Z,1.43
2022-09-10T20:44:19.810Z,1.90
2022-09-10T20:46:47.756Z,1.87
2022-09-10T20:49:16.274Z,1.70
2022-09-10T20:51:45.228Z,1.80
2022-09-10T20:54:17.483Z,2.03
2022-09-10T20:56:47.961Z,2.53
2022-09-10T20:59:17.937Z,2.00
2022-09-10T21:01:47.523Z,2.63
2022-09-10T21:04:16.107Z,2.00
2022-09-10T21:06:44.172Z,3.10
2022-09-10T21:09:13.942Z,2.07
2022-09-10T21:11:42.427Z,2.30
2022-09-10T21:14:11.345Z,2.70
2022-09-10T21:16:41.263Z,3.20
2022-09-10T21:19:12.941Z,3.30
2022-09-10T21:21:41.991Z,3.80
2022-09-10T21:24:14.868Z,3.00
2022-09-10T21:26:44.176Z,3.43
2022-09-10T21:29:14.954Z,2.70
2022-09-10T21:31:43.740Z,3.17
2022-09-10T21:34:12.215Z,3.13
2022-09-10T21:36:41.866Z,3.83
2022-09-10T21:39:16.195Z,3.37
2022-09-10T21:41:46.945Z,3.43
2022-09-10T21:44:17.453Z,3.20
2022-09-10T21:46:46.514Z,3.07
2022-09-10T21:49:15.592Z,3.00
2022-09-10T21:51:43.735Z,2.97
2022-09-10T21:54:18.539Z,4.20
2022-09-10T21:56:46.730Z,3.40
2022-09-10T21:59:16.061Z,3.33
2022-09-10T22:01:46.792Z,3.10
2022-09-10T22:04:21.455Z,3.23
2022-09-10T22:06:50.531Z,3.50
2022-09-10T22:09:21.979Z,2.90
2022-09-10T22:11:53.040Z,2.70
2022-09-10T22:14:23.940Z,3.20
2022-09-10T22:16:52.551Z,2.80
2022-09-10T22:19:23.324Z,2.97
2022-09-10T22:21:51.841Z,2.80
2022-09-10T22:24:22.154Z,2.43
2022-09-10T22:26:50.619Z,3.00
2022-09-10T22:29:20.771Z,2.90
2022-09-10T22:31:49.521Z,3.17
2022-09-10T22:34:19.222Z,2.87
2022-09-10T22:36:48.402Z,2.40
2022-09-10T22:39:20.106Z,3.10
2022-09-10T22:41:49.100Z,2.67
2022-09-10T22:44:19.298Z,2.80
2022-09-10T22:46:47.734Z,3.30
2022-09-10T22:49:17.857Z,2.70
2022-09-10T22:51:46.288Z,2.50
2022-09-10T22:54:14.731Z,3.27
2022-09-10T22:56:45.346Z,3.93
2022-09-10T22:59:15.861Z,3.03
2022-09-10T23:01:47.257Z,2.23
2022-09-10T23:04:15.489Z,3.43
2022-09-10T23:06:43.442Z,3.70
2022-09-10T23:09:14.470Z,3.17
2022-09-10T23:11:45.206Z,3.37
2022-09-10T23:14:17.574Z,3.20
2022-09-10T23:16:48.367Z,4.30
2022-09-10T23:19:19.316Z,3.93
2022-09-10T23:21:49.821Z,4.37
2022-09-10T23:24:21.039Z,4.03
2022-09-10T23:26:50.622Z,4.23
2022-09-10T23:29:18.648Z,4.03
2022-09-10T23:31:48.014Z,4.10
2022-09-10T23:34:19.013Z,4.30
2022-09-10T23:36:49.475Z,5.10
2022-09-10T23:39:20.452Z,4.30
2022-09-10T23:41:53.012Z,4.27
2022-09-10T23:44:21.506Z,4.30
2022-09-10T23:46:50.026Z,5.80
2022-09-10T23:49:18.688Z,5.80
2022-09-10T23:51:46.699Z,7.70
2022-09-10T23:54:18.205Z,6.07
2022-09-10T23:56:46.339Z,6.07
2022-09-10T23:59:16.264Z,6.17
